sensor_id;sensor_type;location;lat;lon;timestamp;P1;durP1;ratioP1;P2;durP2;ratioP2
63581;SDS011;49727;51.078;17.066;2022-12-22T00:00:58;19.50;;;11.07;;
63581;SDS011;49727;51.078;17.066;2022-12-22T00:16:17;28.10;;;14.73;;
63581;SDS011;49727;51.078;17.066;2022-12-22T00:31:38;19.23;;;11.07;;
63581;SDS011;49727;51.078;17.066;2022-12-22T00:46:58;25.33;;;15.90;;
63581;SDS011;49727;51.078;17.066;2022-12-22T01:02:17;29.27;;;17.10;;
63581;SDS011;49727;51.078;17.066;2022-12-22T01:17:35;27.65;;;16.50;;
63581;SDS011;49727;51.078;17.066;2022-12-22T01:32:54;23.33;;;12.15;;
63581;SDS011;49727;51.078;17.066;2022-12-22T01:48:14;16.67;;;10.93;;
63581;SDS011;49727;51.078;17.066;2022-12-22T02:03:35;15.43;;;10.15;;
63581;SDS011;49727;51.078;17.066;2022-12-22T02:19:06;13.05;;;7.78;;
63581;SDS011;49727;51.078;17.066;2022-12-22T02:34:38;11.25;;;7.57;;
63581;SDS011;49727;51.078;17.066;2022-12-22T02:49:58;11.40;;;7.47;;
63581;SDS011;49727;51.078;17.066;2022-12-22T03:05:26;11.43;;;7.22;;
63581;SDS011;49727;51.078;17.066;2022-12-22T03:20:45;10.07;;;6.35;;
63581;SDS011;49727;51.078;17.066;2022-12-22T03:36:04;9.38;;;5.53;;
63581;SDS011;49727;51.078;17.066;2022-12-22T03:51:06;9.00;;;5.70;;
63581;SDS011;49727;51.078;17.066;2022-12-22T04:06:07;10.00;;;5.93;;
63581;SDS011;49727;51.078;17.066;2022-12-22T04:21:07;9.00;;;5.05;;
63581;SDS011;49727;51.078;17.066;2022-12-22T04:36:08;6.40;;;4.95;;
63581;SDS011;49727;51.078;17.066;2022-12-22T04:51:08;8.68;;;4.97;;
63581;SDS011;49727;51.078;17.066;2022-12-22T05:06:09;7.32;;;4.85;;
63581;SDS011;49727;51.078;17.066;2022-12-22T05:21:13;14.30;;;6.10;;
63581;SDS011;49727;51.078;17.066;2022-12-22T05:36:15;10.05;;;6.00;;
63581;SDS011;49727;51.078;17.066;2022-12-22T05:51:16;9.55;;;5.80;;
63581;SDS011;49727;51.078;17.066;2022-12-22T06:06:16;11.05;;;6.60;;
63581;SDS011;49727;51.078;17.066;2022-12-22T06:21:17;11.52;;;7.60;;
63581;SDS011;49727;51.078;17.066;2022-12-22T06:36:17;11.40;;;7.07;;
63581;SDS011;49727;51.078;17.066;2022-12-22T06:51:17;13.05;;;7.22;;
63581;SDS011;49727;51.078;17.066;2022-12-22T07:06:18;10.57;;;6.93;;
63581;SDS011;49727;51.078;17.066;2022-12-22T07:21:19;13.48;;;8.02;;
63581;SDS011;49727;51.078;17.066;2022-12-22T07:36:19;16.08;;;9.45;;
63581;SDS011;49727;51.078;17.066;2022-12-22T07:51:20;14.57;;;8.05;;
63581;SDS011;49727;51.078;17.066;2022-12-22T08:06:20;14.75;;;8.35;;
63581;SDS011;49727;51.078;17.066;2022-12-22T08:21:21;14.05;;;8.75;;
63581;SDS011;49727;51.078;17.066;2022-12-22T08:36:21;16.55;;;7.70;;
63581;SDS011;49727;51.078;17.066;2022-12-22T08:51:22;13.85;;;8.75;;
63581;SDS011;49727;51.078;17.066;2022-12-22T09:06:23;15.18;;;8.30;;
63581;SDS011;49727;51.078;17.066;2022-12-22T09:21:24;12.70;;;7.60;;
63581;SDS011;49727;51.078;17.066;2022-12-22T09:36:26;9.82;;;6.53;;
63581;SDS011;49727;51.078;17.066;2022-12-22T09:51:28;9.67;;;5.30;;
63581;SDS011;49727;51.078;17.066;2022-12-22T10:06:35;11.03;;;6.23;;
63581;SDS011;49727;51.078;17.066;2022-12-22T10:21:45;14.40;;;6.30;;
63581;SDS011;49727;51.078;17.066;2022-12-22T10:36:49;11.95;;;6.70;;
63581;SDS011;49727;51.078;17.066;2022-12-22T11:07:11;7.85;;;4.43;;
63581;SDS011;49727;51.078;17.066;2022-12-22T11:22:25;8.85;;;5.78;;
63581;SDS011;49727;51.078;17.066;2022-12-22T11:37:48;6.55;;;3.97;;
63581;SDS011;49727;51.078;17.066;2022-12-22T11:52:56;11.50;;;5.83;;
63581;SDS011;49727;51.078;17.066;2022-12-22T12:38:42;14.47;;;4.43;;
63581;SDS011;49727;51.078;17.066;2022-12-22T12:54:20;6.17;;;2.87;;
63581;SDS011;49727;51.078;17.066;2022-12-22T13:09:25;7.13;;;4.70;;
63581;SDS011;49727;51.078;17.066;2022-12-22T13:24:28;10.67;;;5.67;;
63581;SDS011;49727;51.078;17.066;2022-12-22T13:39:32;6.93;;;3.57;;
63581;SDS011;49727;51.078;17.066;2022-12-22T13:54:32;6.47;;;4.00;;
63581;SDS011;49727;51.078;17.066;2022-12-22T14:24:41;6.53;;;3.25;;
63581;SDS011;49727;51.078;17.066;2022-12-22T14:39:44;6.87;;;4.00;;
63581;SDS011;49727;51.078;17.066;2022-12-22T14:54:54;11.93;;;5.40;;
63581;SDS011;49727;51.078;17.066;2022-12-22T15:10:04;16.77;;;9.60;;
63581;SDS011;49727;51.078;17.066;2022-12-22T15:25:15;11.37;;;5.40;;
63581;SDS011;49727;51.078;17.066;2022-12-22T15:40:19;9.03;;;4.57;;
63581;SDS011;49727;51.078;17.066;2022-12-22T15:55:21;10.23;;;5.73;;
63581;SDS011;49727;51.078;17.066;2022-12-22T16:10:24;9.20;;;4.10;;
63581;SDS011;49727;51.078;17.066;2022-12-22T16:25:30;7.77;;;5.77;;
63581;SDS011;49727;51.078;17.066;2022-12-22T16:40:42;10.50;;;5.90;;
63581;SDS011;49727;51.078;17.066;2022-12-22T16:55:45;8.87;;;5.77;;
63581;SDS011;49727;51.078;17.066;2022-12-22T17:10:45;13.02;;;6.38;;
63581;SDS011;49727;51.078;17.066;2022-12-22T17:25:46;13.05;;;6.40;;
63581;SDS011;49727;51.078;17.066;2022-12-22T17:40:47;7.93;;;4.78;;
63581;SDS011;49727;51.078;17.066;2022-12-22T17:55:48;8.17;;;4.10;;
63581;SDS011;49727;51.078;17.066;2022-12-22T18:10:48;7.57;;;4.18;;
63581;SDS011;49727;51.078;17.066;2022-12-22T18:25:49;6.22;;;4.32;;
63581;SDS011;49727;51.078;17.066;2022-12-22T18:40:49;7.63;;;4.32;;
63581;SDS011;49727;51.078;17.066;2022-12-22T18:55:50;7.25;;;4.28;;
63581;SDS011;49727;51.078;17.066;2022-12-22T19:10:52;7.28;;;4.22;;
63581;SDS011;49727;51.078;17.066;2022-12-22T19:25:57;8.37;;;4.43;;
63581;SDS011;49727;51.078;17.066;2022-12-22T19:41:02;9.47;;;5.50;;
63581;SDS011;49727;51.078;17.066;2022-12-22T19:56:07;6.73;;;4.47;;
63581;SDS011;49727;51.078;17.066;2022-12-22T20:11:22;9.80;;;4.90;;
63581;SDS011;49727;51.078;17.066;2022-12-22T20:26:23;7.13;;;3.88;;
63581;SDS011;49727;51.078;17.066;2022-12-22T20:41:25;10.73;;;6.33;;
63581;SDS011;49727;51.078;17.066;2022-12-22T20:56:30;7.95;;;4.68;;
63581;SDS011;49727;51.078;17.066;2022-12-22T21:11:35;6.63;;;4.37;;
63581;SDS011;49727;51.078;17.066;2022-12-22T21:26:37;8.93;;;5.55;;
63581;SDS011;49727;51.078;17.066;2022-12-22T21:41:41;8.40;;;6.40;;
63581;SDS011;49727;51.078;17.066;2022-12-22T21:57:00;8.63;;;6.13;;
63581;SDS011;49727;51.078;17.066;2022-12-22T22:12:01;10.77;;;6.70;;
63581;SDS011;49727;51.078;17.066;2022-12-22T22:27:20;7.80;;;5.33;;
63581;SDS011;49727;51.078;17.066;2022-12-22T22:42:20;9.88;;;5.32;;
63581;SDS011;49727;51.078;17.066;2022-12-22T22:57:21;11.13;;;4.85;;
63581;SDS011;49727;51.078;17.066;2022-12-22T23:12:21;7.88;;;5.70;;
63581;SDS011;49727;51.078;17.066;2022-12-22T23:27:21;10.38;;;5.63;;
63581;SDS011;49727;51.078;17.066;2022-12-22T23:42:22;10.98;;;6.03;;
63581;SDS011;49727;51.078;17.066;2022-12-22T23:57:22;11.18;;;7.10;;
